Time;durP1;ratioP1;P1;durP2;ratioP2;P2;SDS_P1;SDS_P2;PMS_P1;PMS_P2;Temp;Humidity;BMP_temperature;BMP_pressure;BME280_temperature;BME280_humidity;BME280_pressure;Samples;Min_cycle;Max_cycle;Signal;HPM_P1;HPM_P2
2022/04/24 00:00:07;;;;;;;22.40;13.32;;;11.40;99.90;;;;;;5070827;28;20418;-52
2022/04/24 00:02:33;;;;;;;22.60;13.40;;;11.50;99.90;;;;;;5069547;28;20402;-52
2022/04/24 00:04:59;;;;;;;23.40;14.07;;;11.50;99.90;;;;;;5065306;28;20405;-52
2022/04/24 00:07:25;;;;;;;21.10;13.10;;;11.60;99.90;;;;;;5050743;28;20870;-52
2022/04/24 00:09:51;;;;;;;25.95;15.27;;;11.60;99.90;;;;;;5069036;28;20424;-53
2022/04/24 00:12:18;;;;;;;23.83;15.00;;;11.50;99.90;;;;;;5069582;28;20733;-52
2022/04/24 00:14:44;;;;;;;23.48;13.30;;;11.50;99.90;;;;;;5070259;28;20387;-52
2022/04/24 00:17:10;;;;;;;21.52;12.63;;;11.60;99.90;;;;;;5066637;28;20424;-52
2022/04/24 00:19:36;;;;;;;22.60;14.00;;;11.70;99.90;;;;;;5063358;28;20910;-52
2022/04/24 00:22:02;;;;;;;20.77;13.50;;;11.80;99.90;;;;;;5073202;28;20828;-52
2022/04/24 00:24:28;;;;;;;22.48;13.80;;;11.80;99.90;;;;;;5082778;28;20405;-52
2022/04/24 00:26:54;;;;;;;20.00;12.52;;;11.80;99.90;;;;;;5081724;28;20867;-52
2022/04/24 00:29:20;;;;;;;21.13;13.02;;;11.90;99.90;;;;;;5080274;28;20483;-52
2022/04/24 00:31:46;;;;;;;20.33;13.20;;;12.00;99.90;;;;;;5085009;28;20402;-52
2022/04/24 00:34:12;;;;;;;23.10;13.70;;;11.90;99.90;;;;;;5077726;28;20899;-53
2022/04/24 00:36:38;;;;;;;21.45;13.00;;;12.00;99.90;;;;;;5077262;28;20462;-52
2022/04/24 00:39:05;;;;;;;21.95;13.07;;;11.90;99.90;;;;;;5083479;28;20394;-52
2022/04/24 00:41:31;;;;;;;20.77;12.68;;;11.90;99.90;;;;;;5078384;28;20871;-52
2022/04/24 00:43:57;;;;;;;22.45;13.07;;;11.80;99.90;;;;;;5085456;28;20401;-52
2022/04/24 00:46:40;;;;;;;20.53;12.97;;;11.70;99.90;;;;;;5080086;28;20454;-53
2022/04/24 00:49:11;;;;;;;21.63;12.60;;;11.50;99.90;;;;;;5079504;28;20416;-53
2022/04/24 00:51:42;;;;;;;20.85;13.20;;;11.30;99.90;;;;;;5087578;28;20402;-53
2022/04/24 00:54:09;;;;;;;20.50;12.65;;;11.40;99.90;;;;;;5076009;28;20399;-52
2022/04/24 00:56:40;;;;;;;22.35;13.40;;;11.40;99.90;;;;;;5070413;28;20933;-53
2022/04/24 00:59:08;;;;;;;20.73;12.70;;;11.60;99.90;;;;;;5070266;28;20486;-53
2022/04/24 01:01:35;;;;;;;19.85;12.60;;;11.70;99.90;;;;;;5069305;28;20417;-53
2022/04/24 01:04:03;;;;;;;20.88;12.50;;;11.70;99.90;;;;;;5083884;28;20882;-52
2022/04/24 01:06:33;;;;;;;22.83;13.15;;;11.70;99.90;;;;;;5073221;28;20428;-53
2022/04/24 01:09:10;;;;;;;18.27;11.73;;;11.70;99.90;;;;;;5075234;28;21015;-53
2022/04/24 01:11:36;;;;;;;22.45;12.85;;;11.70;99.90;;;;;;5083731;28;20377;-53
2022/04/24 01:14:01;;;;;;;21.58;12.20;;;11.80;99.90;;;;;;5089777;28;20374;-53
2022/04/24 01:16:27;;;;;;;20.17;12.32;;;11.80;99.90;;;;;;5087098;28;20412;-53
2022/04/24 01:18:54;;;;;;;19.27;11.90;;;11.90;99.90;;;;;;5074968;28;20489;-53
2022/04/24 01:21:19;;;;;;;20.92;12.55;;;11.90;99.90;;;;;;5081641;28;20443;-53
2022/04/24 01:23:45;;;;;;;20.15;11.93;;;11.90;99.90;;;;;;5063043;28;20404;-53
2022/04/24 01:26:12;;;;;;;19.37;11.30;;;11.90;99.90;;;;;;5058783;28;20393;-53
2022/04/24 01:28:38;;;;;;;21.73;11.75;;;11.80;99.90;;;;;;5063074;28;20423;-53
2022/04/24 01:31:05;;;;;;;19.30;12.10;;;11.80;99.90;;;;;;5058782;28;20435;-53
2022/04/24 01:33:31;;;;;;;20.60;12.73;;;11.90;99.90;;;;;;5032780;28;20400;-52
2022/04/24 01:35:57;;;;;;;23.45;12.73;;;11.90;99.90;;;;;;5067008;28;20395;-52
2022/04/24 01:38:23;;;;;;;19.70;11.90;;;11.90;99.90;;;;;;5055480;28;20419;-53
2022/04/24 01:40:49;;;;;;;20.25;12.05;;;12.00;99.90;;;;;;5067259;28;20406;-53
2022/04/24 01:43:18;;;;;;;19.50;11.90;;;12.00;99.90;;;;;;5060928;28;20881;-52
2022/04/24 01:45:44;;;;;;;20.80;12.37;;;11.90;99.90;;;;;;5062767;28;20380;-53
2022/04/24 01:48:10;;;;;;;19.00;12.10;;;11.90;99.90;;;;;;5063513;28;20910;-52
2022/04/24 01:50:36;;;;;;;20.17;12.30;;;11.90;99.90;;;;;;5051874;28;20387;-53
2022/04/24 01:53:01;;;;;;;20.63;12.70;;;11.90;99.90;;;;;;5060546;28;20397;-53
2022/04/24 01:55:27;;;;;;;18.92;11.60;;;11.90;99.90;;;;;;5049805;28;20382;-53
2022/04/24 01:57:53;;;;;;;19.87;11.77;;;11.90;99.90;;;;;;5069538;28;20408;-53
2022/04/24 02:00:19;;;;;;;21.42;12.48;;;11.80;99.90;;;;;;5058081;28;20882;-53
2022/04/24 02:02:46;;;;;;;18.63;11.25;;;11.90;99.90;;;;;;5057260;28;20387;-53
2022/04/24 02:05:12;;;;;;;19.25;11.40;;;11.90;99.90;;;;;;5069127;28;20494;-53
2022/04/24 02:07:38;;;;;;;20.83;12.35;;;12.00;99.90;;;;;;5060450;28;20596;-53
2022/04/24 02:10:04;;;;;;;19.30;11.20;;;12.10;99.90;;;;;;5052470;28;20871;-53
2022/04/24 02:12:30;;;;;;;20.90;12.70;;;12.10;99.90;;;;;;5064320;28;20526;-53
2022/04/24 02:14:56;;;;;;;21.40;12.63;;;12.10;99.90;;;;;;5053417;28;20389;-53
2022/04/24 02:17:23;;;;;;;20.83;12.00;;;11.90;99.90;;;;;;5052063;28;20503;-53
2022/04/24 02:19:48;;;;;;;19.88;12.38;;;11.80;99.90;;;;;;5061207;28;20405;-53
2022/04/24 02:22:14;;;;;;;20.25;12.65;;;11.80;99.90;;;;;;5071235;28;20460;-54
2022/04/24 02:24:40;;;;;;;21.87;12.90;;;11.90;99.90;;;;;;5086692;28;20966;-53
2022/04/24 02:27:06;;;;;;;20.83;13.05;;;12.00;99.90;;;;;;5087455;28;20470;-53
2022/04/24 02:29:33;;;;;;;20.23;12.17;;;12.00;99.90;;;;;;5075069;28;20418;-53
2022/04/24 02:31:59;;;;;;;20.92;12.40;;;12.00;99.90;;;;;;5072904;28;20443;-53
2022/04/24 02:34:26;;;;;;;21.10;12.15;;;11.90;99.90;;;;;;5066858;28;20387;-53
2022/04/24 02:36:52;;;;;;;21.30;13.33;;;11.80;99.90;;;;;;5071277;28;20444;-53
2022/04/24 02:39:18;;;;;;;23.55;14.00;;;11.70;99.90;;;;;;5072005;28;20426;-53
2022/04/24 02:41:43;;;;;;;21.73;12.90;;;11.50;99.90;;;;;;5090861;28;20457;-53
2022/04/24 02:44:09;;;;;;;26.53;14.80;;;11.30;99.90;;;;;;5077802;28;20449;-53
2022/04/24 02:46:34;;;;;;;22.15;13.30;;;11.20;99.90;;;;;;5082135;28;20424;-52
2022/04/24 02:49:00;;;;;;;23.47;14.57;;;11.10;99.90;;;;;;5081390;28;20785;-53
2022/04/24 02:51:26;;;;;;;23.08;13.90;;;11.10;99.90;;;;;;5087796;28;20797;-53
2022/04/24 02:53:53;;;;;;;24.50;14.30;;;11.10;99.90;;;;;;5079380;28;20386;-53
2022/04/24 02:56:19;;;;;;;24.63;14.65;;;11.00;99.90;;;;;;5081999;28;20475;-53
2022/04/24 02:58:45;;;;;;;25.10;14.90;;;11.00;99.90;;;;;;5089605;28;20530;-53
2022/04/24 03:01:11;;;;;;;24.88;14.60;;;11.00;99.90;;;;;;5086026;28;20772;-53
2022/04/24 03:03:38;;;;;;;27.10;15.63;;;11.20;99.90;;;;;;5074776;28;20390;-53
2022/04/24 03:06:04;;;;;;;27.42;15.73;;;11.30;99.90;;;;;;5092292;28;20382;-53
2022/04/24 03:08:30;;;;;;;24.43;15.20;;;11.30;99.90;;;;;;5086550;28;20801;-53
2022/04/24 03:10:56;;;;;;;28.88;16.30;;;11.40;99.90;;;;;;5090509;28;20573;-53
2022/04/24 03:13:22;;;;;;;27.08;15.43;;;11.50;99.90;;;;;;5090236;28;20461;-53
2022/04/24 03:15:47;;;;;;;29.27;16.07;;;11.60;99.90;;;;;;5077673;28;20475;-53
2022/04/24 03:18:13;;;;;;;25.48;14.90;;;12.20;99.90;;;;;;5085452;28;20402;-53
2022/04/24 03:20:39;;;;;;;26.17;16.10;;;11.60;99.90;;;;;;5091422;28;20390;-53
2022/04/24 03:23:05;;;;;;;26.58;16.20;;;11.60;99.90;;;;;;5087919;28;20872;-53
2022/04/24 03:25:30;;;;;;;27.37;15.67;;;11.70;99.90;;;;;;5072275;28;20475;-53
2022/04/24 03:27:56;;;;;;;24.77;15.80;;;11.60;99.90;;;;;;5062923;28;20475;-53
2022/04/24 03:30:22;;;;;;;25.63;16.10;;;11.60;99.90;;;;;;5070758;28;20776;-53
2022/04/24 03:32:48;;;;;;;27.83;16.75;;;11.50;99.90;;;;;;5076182;28;20395;-53
2022/04/24 03:35:14;;;;;;;25.77;16.48;;;11.50;99.90;;;;;;5071199;28;20437;-53
2022/04/24 03:37:41;;;;;;;26.27;16.13;;;11.60;99.90;;;;;;5088315;28;20413;-53
2022/04/24 03:40:08;;;;;;;25.20;16.15;;;11.60;99.90;;;;;;5090150;28;20439;-53
2022/04/24 03:42:35;;;;;;;25.08;15.27;;;11.60;99.90;;;;;;5087407;28;20425;-53
2022/04/24 03:45:02;;;;;;;25.20;16.05;;;11.50;99.90;;;;;;5090036;28;20386;-53
2022/04/24 03:47:27;;;;;;;28.42;16.88;;;11.60;99.90;;;;;;5074218;28;20392;-53
2022/04/24 03:49:54;;;;;;;28.05;16.20;;;11.60;99.90;;;;;;5072447;28;20410;-53
2022/04/24 03:52:20;;;;;;;28.35;16.65;;;11.60;99.90;;;;;;5052586;28;20427;-53
2022/04/24 03:54:46;;;;;;;26.85;16.70;;;11.50;99.90;;;;;;5087896;28;20428;-53
2022/04/24 03:57:12;;;;;;;26.35;15.95;;;11.50;99.90;;;;;;5065513;28;20793;-53
2022/04/24 03:59:37;;;;;;;27.80;16.30;;;11.50;99.90;;;;;;5071623;28;20448;-53
2022/04/24 04:02:03;;;;;;;24.27;15.13;;;11.40;99.90;;;;;;5076418;28;20415;-53
2022/04/24 04:04:29;;;;;;;24.52;15.27;;;11.40;99.90;;;;;;5078196;28;20394;-53
2022/04/24 04:06:55;;;;;;;26.70;16.40;;;11.40;99.90;;;;;;5091332;28;20374;-53
2022/04/24 04:09:22;;;;;;;25.27;16.25;;;11.40;99.90;;;;;;5088788;28;20397;-53
2022/04/24 04:11:48;;;;;;;25.13;15.63;;;11.40;99.90;;;;;;5088144;28;20390;-54
2022/04/24 04:14:16;;;;;;;24.85;15.23;;;11.30;99.90;;;;;;5078905;28;20387;-53
2022/04/24 04:16:41;;;;;;;24.52;15.60;;;11.30;99.90;;;;;;5070056;28;20454;-55
2022/04/24 04:19:07;;;;;;;26.20;16.20;;;11.30;99.90;;;;;;5084126;28;20421;-54
2022/04/24 04:21:33;;;;;;;24.70;16.10;;;11.30;99.90;;;;;;5082596;28;20862;-54
2022/04/24 04:23:58;;;;;;;25.60;16.27;;;11.40;99.90;;;;;;5087035;28;20480;-53
2022/04/24 04:26:24;;;;;;;28.15;17.13;;;11.20;99.90;;;;;;5078582;28;20395;-53
2022/04/24 04:28:51;;;;;;;26.10;16.93;;;11.10;99.90;;;;;;5085794;28;20893;-54
2022/04/24 04:31:17;;;;;;;25.63;16.58;;;11.00;99.90;;;;;;5089182;28;20561;-53
2022/04/24 04:33:43;;;;;;;28.70;16.55;;;11.00;99.90;;;;;;5088865;28;20989;-53
2022/04/24 04:36:09;;;;;;;26.15;16.00;;;10.90;99.90;;;;;;5088359;28;20965;-53
2022/04/24 04:38:35;;;;;;;23.65;15.60;;;10.90;99.90;;;;;;5088809;28;20493;-53
2022/04/24 04:41:01;;;;;;;25.48;15.52;;;11.00;99.90;;;;;;5055654;28;20549;-53
2022/04/24 04:43:27;;;;;;;26.10;16.15;;;11.00;99.90;;;;;;5055192;28;20398;-53
2022/04/24 04:45:53;;;;;;;27.58;16.70;;;11.00;99.90;;;;;;5086454;28;20398;-54
2022/04/24 04:48:19;;;;;;;28.25;16.17;;;11.00;99.90;;;;;;5075964;28;20438;-53
2022/04/24 04:50:45;;;;;;;24.80;16.23;;;10.90;99.90;;;;;;5064291;28;20759;-53
2022/04/24 04:53:10;;;;;;;28.15;17.10;;;10.80;99.90;;;;;;5076875;28;20874;-54
2022/04/24 04:55:37;;;;;;;27.80;17.27;;;10.80;99.90;;;;;;5083514;28;20398;-53
2022/04/24 04:58:03;;;;;;;26.40;16.65;;;10.80;99.90;;;;;;5078021;28;20419;-53
2022/04/24 05:00:29;;;;;;;31.10;17.90;;;10.50;99.90;;;;;;5084143;28;20473;-53
2022/04/24 05:02:56;;;;;;;26.13;14.95;;;10.20;99.90;;;;;;5087569;28;20402;-53
2022/04/24 05:05:21;;;;;;;16.85;7.78;;;10.10;99.90;;;;;;5081517;28;20877;-53
2022/04/24 05:07:47;;;;;;;13.10;5.93;;;9.90;99.90;;;;;;5070958;28;20387;-53
2022/04/24 05:10:13;;;;;;;12.82;5.35;;;9.70;99.90;;;;;;5076888;28;20390;-53
2022/04/24 05:12:39;;;;;;;10.70;4.63;;;9.60;99.90;;;;;;5074254;28;20467;-53
2022/04/24 05:15:09;;;;;;;7.80;2.80;;;9.40;99.90;;;;;;5071109;28;20857;-53
2022/04/24 05:17:36;;;;;;;6.32;2.05;;;9.30;99.90;;;;;;5088989;28;20438;-54
2022/04/24 05:20:04;;;;;;;5.13;0.93;;;9.20;99.90;;;;;;5086496;28;20406;-53
2022/04/24 05:22:29;;;;;;;4.10;0.80;;;9.00;99.90;;;;;;5069456;28;21150;-54
2022/04/24 05:24:55;;;;;;;3.57;0.40;;;8.80;99.90;;;;;;5069116;28;20426;-53
2022/04/24 05:27:21;;;;;;;4.65;0.43;;;8.70;99.90;;;;;;5068529;28;20398;-53
2022/04/24 05:29:47;;;;;;;3.35;0.40;;;8.50;99.90;;;;;;5060651;28;20848;-53
2022/04/24 05:32:14;;;;;;;4.20;0.60;;;8.40;99.90;;;;;;5068642;28;20399;-53
2022/04/24 05:34:39;;;;;;;2.92;0.30;;;8.40;99.90;;;;;;5048868;28;20376;-53
2022/04/24 05:37:06;;;;;;;3.67;0.20;;;8.40;99.90;;;;;;5055319;28;20412;-53
2022/04/24 05:39:32;;;;;;;3.10;0.30;;;8.40;99.90;;;;;;5064939;28;20409;-54
2022/04/24 05:41:57;;;;;;;3.17;0.35;;;8.50;99.90;;;;;;5056371;28;20405;-52
2022/04/24 05:44:24;;;;;;;2.90;0.22;;;8.40;99.90;;;;;;5066600;28;20388;-52
2022/04/24 05:46:50;;;;;;;4.00;0.40;;;8.30;99.90;;;;;;5069801;28;20577;-52
2022/04/24 05:49:16;;;;;;;3.80;0.40;;;8.30;99.90;;;;;;5068764;28;20391;-53
2022/04/24 05:51:42;;;;;;;3.00;0.40;;;8.30;99.90;;;;;;5065748;28;20461;-53
2022/04/24 05:54:09;;;;;;;3.70;0.40;;;8.10;99.90;;;;;;5025275;28;20393;-53
2022/04/24 05:56:35;;;;;;;3.50;0.40;;;8.10;99.90;;;;;;5050569;28;20407;-52
2022/04/24 05:59:01;;;;;;;3.20;0.40;;;8.10;99.90;;;;;;5059238;28;20389;-52
2022/04/24 06:01:26;;;;;;;3.30;0.47;;;8.10;99.90;;;;;;5054384;28;20397;-53
2022/04/24 06:03:52;;;;;;;3.05;0.30;;;8.00;99.90;;;;;;5052673;28;20399;-53
2022/04/24 06:06:18;;;;;;;3.00;0.30;;;8.00;99.90;;;;;;5039550;28;20414;-53
2022/04/24 06:08:44;;;;;;;4.93;0.50;;;8.00;99.90;;;;;;5044755;28;20396;-52
2022/04/24 06:11:09;;;;;;;3.40;0.50;;;8.00;99.90;;;;;;5069338;28;20417;-53
2022/04/24 06:13:35;;;;;;;4.20;0.30;;;7.90;99.90;;;;;;5070279;28;20445;-53
2022/04/24 06:16:01;;;;;;;2.90;0.30;;;7.90;99.90;;;;;;5063682;28;20867;-53
2022/04/24 06:18:28;;;;;;;3.35;0.40;;;7.90;99.90;;;;;;5068820;28;20411;-52
2022/04/24 06:20:53;;;;;;;2.90;0.30;;;7.90;99.90;;;;;;5063451;28;20503;-53
2022/04/24 06:23:19;;;;;;;3.70;0.50;;;7.90;99.90;;;;;;5065948;28;20501;-53
2022/04/24 06:25:45;;;;;;;2.80;0.30;;;7.90;99.90;;;;;;5067255;28;20422;-54
2022/04/24 06:28:14;;;;;;;3.83;0.35;;;7.90;99.90;;;;;;5069611;28;20415;-53
2022/04/24 06:30:43;;;;;;;3.10;0.40;;;8.00;99.90;;;;;;5083003;28;20425;-53
2022/04/24 06:33:12;;;;;;;3.17;0.30;;;8.00;99.90;;;;;;5083913;28;20403;-53
2022/04/24 06:35:45;;;;;;;3.07;0.47;;;8.10;99.90;;;;;;5083835;28;20392;-53
2022/04/24 06:38:11;;;;;;;3.45;0.40;;;8.10;99.90;;;;;;5075744;28;20418;-53
2022/04/24 06:40:38;;;;;;;3.30;0.30;;;8.10;99.90;;;;;;5076644;28;20413;-53
2022/04/24 06:43:06;;;;;;;4.33;0.40;;;8.10;99.90;;;;;;5058949;28;20494;-53
2022/04/24 06:45:37;;;;;;;3.00;0.40;;;8.10;99.90;;;;;;5076354;28;20403;-53
2022/04/24 06:48:04;;;;;;;3.50;0.40;;;8.20;99.90;;;;;;5083410;28;20391;-53
2022/04/24 06:50:30;;;;;;;3.20;0.40;;;8.20;99.90;;;;;;5070758;28;20439;-53
2022/04/24 06:53:01;;;;;;;2.80;0.20;;;8.40;99.90;;;;;;5081898;28;20423;-53
2022/04/24 06:55:28;;;;;;;5.00;0.30;;;8.30;99.90;;;;;;5053505;28;20407;-53
2022/04/24 06:57:56;;;;;;;3.30;0.40;;;8.50;99.90;;;;;;5080448;28;20400;-53
2022/04/24 07:00:25;;;;;;;3.20;0.30;;;8.40;99.90;;;;;;5089422;28;20393;-53
2022/04/24 07:02:51;;;;;;;3.17;0.30;;;8.40;99.90;;;;;;5085526;28;20386;-53
2022/04/24 07:05:22;;;;;;;3.10;0.30;;;8.40;99.90;;;;;;5084206;28;20425;-53
2022/04/24 07:07:49;;;;;;;2.80;0.30;;;8.40;99.90;;;;;;5071011;28;20758;-53
2022/04/24 07:10:17;;;;;;;2.80;0.20;;;8.50;99.90;;;;;;5090759;28;20384;-53
2022/04/24 07:12:52;;;;;;;2.80;0.30;;;8.50;99.90;;;;;;5086972;28;20493;-53
2022/04/24 07:15:22;;;;;;;2.90;0.30;;;8.50;99.90;;;;;;5087549;28;20383;-53
2022/04/24 07:17:51;;;;;;;3.50;0.30;;;8.50;99.90;;;;;;5086613;28;20483;-53
2022/04/24 07:20:20;;;;;;;3.30;0.20;;;8.50;99.90;;;;;;5085953;28;20400;-54
2022/04/24 07:22:52;;;;;;;2.92;0.22;;;8.70;99.90;;;;;;5096785;28;20418;-54
2022/04/24 07:25:23;;;;;;;3.30;0.30;;;8.70;99.90;;;;;;5097282;28;20435;-53
2022/04/24 07:27:51;;;;;;;3.00;0.30;;;9.30;99.90;;;;;;5100801;28;20390;-54
2022/04/24 07:30:20;;;;;;;3.38;0.40;;;8.80;99.90;;;;;;5090348;28;20767;-54
2022/04/24 07:32:48;;;;;;;2.80;0.30;;;8.90;99.90;;;;;;5080832;28;20402;-54
2022/04/24 07:35:20;;;;;;;4.82;0.40;;;8.70;99.90;;;;;;5108445;28;20393;-53
2022/04/24 07:37:49;;;;;;;2.90;0.30;;;8.80;99.90;;;;;;5104950;28;20413;-53
2022/04/24 07:40:19;;;;;;;3.10;0.40;;;8.70;99.90;;;;;;5081387;28;20887;-54
2022/04/24 07:42:51;;;;;;;3.20;0.40;;;8.70;99.90;;;;;;5100337;28;20404;-54
2022/04/24 07:45:21;;;;;;;2.95;0.30;;;8.70;99.90;;;;;;5066926;28;20412;-54
2022/04/24 07:47:48;;;;;;;4.10;0.40;;;8.80;99.90;;;;;;5102892;28;20394;-53
2022/04/24 07:50:16;;;;;;;3.30;0.50;;;8.90;99.90;;;;;;5095627;28;20948;-54
2022/04/24 07:52:42;;;;;;;3.00;0.30;;;8.90;99.90;;;;;;5087187;28;20436;-54
2022/04/24 07:55:15;;;;;;;3.10;0.50;;;8.80;99.90;;;;;;5071408;28;20544;-55
2022/04/24 07:57:41;;;;;;;3.10;0.50;;;9.00;99.90;;;;;;5079061;28;20415;-54
2022/04/24 08:00:09;;;;;;;3.20;0.50;;;9.10;99.90;;;;;;5075458;28;20772;-54
2022/04/24 08:02:45;;;;;;;3.50;0.50;;;8.80;99.90;;;;;;5085035;28;20402;-54
2022/04/24 08:05:11;;;;;;;2.97;0.40;;;8.90;99.90;;;;;;5082250;28;20743;-54
2022/04/24 08:07:37;;;;;;;3.35;0.40;;;8.90;99.90;;;;;;5089138;28;20393;-54
2022/04/24 08:10:03;;;;;;;3.40;0.60;;;9.00;99.90;;;;;;5090247;28;20405;-54
2022/04/24 08:12:28;;;;;;;3.20;0.50;;;9.20;99.90;;;;;;5089831;28;20385;-54
2022/04/24 08:14:54;;;;;;;3.30;0.40;;;9.10;99.90;;;;;;5083743;28;20481;-54
2022/04/24 08:17:20;;;;;;;3.70;0.40;;;9.00;99.90;;;;;;5087181;28;20421;-54
2022/04/24 08:19:45;;;;;;;3.00;0.40;;;9.00;99.90;;;;;;5084425;28;20402;-54
2022/04/24 08:22:11;;;;;;;3.33;0.50;;;8.90;99.90;;;;;;5068595;28;20408;-54
2022/04/24 08:24:37;;;;;;;3.00;0.35;;;8.80;99.90;;;;;;5069330;28;20806;-54
2022/04/24 08:27:02;;;;;;;2.93;0.40;;;8.80;99.90;;;;;;5069951;28;20411;-54
2022/04/24 08:29:28;;;;;;;3.65;0.50;;;8.90;99.90;;;;;;5069622;28;20372;-54
2022/04/24 08:31:54;;;;;;;3.10;0.50;;;8.90;99.90;;;;;;5068704;28;20392;-54
2022/04/24 08:34:19;;;;;;;3.10;0.40;;;8.90;99.90;;;;;;5069699;28;20380;-54
2022/04/24 08:36:45;;;;;;;3.30;0.60;;;9.10;99.90;;;;;;5067957;28;20430;-54
2022/04/24 08:39:11;;;;;;;9.40;6.78;;;9.10;99.90;;;;;;5068404;28;20448;-54
2022/04/24 08:41:40;;;;;;;3.30;0.60;;;9.10;99.90;;;;;;5069000;28;20410;-54
2022/04/24 08:44:08;;;;;;;4.60;1.42;;;9.10;99.90;;;;;;5070090;28;20383;-54
2022/04/24 08:46:34;;;;;;;11.65;6.78;;;9.10;99.90;;;;;;5068813;28;20891;-54
2022/04/24 08:49:02;;;;;;;7.20;4.20;;;9.00;99.90;;;;;;5070057;28;20417;-53
2022/04/24 08:51:29;;;;;;;5.20;2.03;;;9.10;99.90;;;;;;5069263;28;20410;-54
2022/04/24 08:53:56;;;;;;;4.18;1.30;;;9.20;99.90;;;;;;5064346;28;20445;-53
2022/04/24 08:56:22;;;;;;;4.68;1.55;;;9.40;99.90;;;;;;5056743;28;20384;-54
2022/04/24 08:58:48;;;;;;;3.67;1.15;;;9.50;99.90;;;;;;5051640;28;20426;-54
2022/04/24 09:01:14;;;;;;;4.18;1.50;;;9.60;99.90;;;;;;5050632;28;20551;-54
2022/04/24 09:03:40;;;;;;;5.67;2.60;;;9.70;99.90;;;;;;5052709;28;20486;-54
2022/04/24 09:06:05;;;;;;;4.03;1.00;;;9.70;99.90;;;;;;5055165;28;20420;-54
2022/04/24 09:08:35;;;;;;;4.53;1.30;;;9.70;99.90;;;;;;5055686;28;20437;-54
2022/04/24 09:11:01;;;;;;;3.88;0.90;;;9.70;99.90;;;;;;5060906;28;20406;-54
2022/04/24 09:14:14;;;;;;;7.65;1.67;;;9.70;99.90;;;;;;5055515;28;20386;-54
2022/04/24 09:16:18;;;;;;;5.38;1.30;;;9.80;99.90;;;;;;5069195;28;20379;-54
2022/04/24 09:18:46;;;;;;;5.30;1.40;;;9.90;99.90;;;;;;5064887;28;20460;-54
2022/04/24 09:21:13;;;;;;;3.50;0.80;;;10.00;99.90;;;;;;5067104;28;20406;-54
2022/04/24 09:23:42;;;;;;;3.78;0.88;;;10.00;99.90;;;;;;5062747;28;20395;-54
2022/04/24 09:26:16;;;;;;;4.07;0.73;;;10.10;99.90;;;;;;5059608;28;20386;-54
2022/04/24 09:28:43;;;;;;;4.70;1.30;;;10.10;99.90;;;;;;5048973;28;20377;-54
2022/04/24 09:31:09;;;;;;;5.53;1.30;;;10.20;99.90;;;;;;5049735;28;20382;-54
2022/04/24 09:33:42;;;;;;;8.25;3.88;;;10.10;99.90;;;;;;5055569;28;20534;-54
2022/04/24 09:36:09;;;;;;;6.30;2.13;;;10.20;99.90;;;;;;5052500;28;20397;-54
2022/04/24 09:38:45;;;;;;;6.90;1.70;;;10.20;99.90;;;;;;5063945;28;20438;-54
2022/04/24 09:41:24;;;;;;;4.30;1.27;;;10.10;99.90;;;;;;5057199;28;20398;-54
2022/04/24 09:43:50;;;;;;;6.88;1.95;;;10.00;99.90;;;;;;5063377;28;20486;-54
2022/04/24 09:46:29;;;;;;;5.90;1.70;;;10.00;99.90;;;;;;5062654;28;20376;-55
2022/04/24 09:49:00;;;;;;;4.72;1.30;;;9.80;99.90;;;;;;5063373;28;20474;-54
2022/04/24 09:51:26;;;;;;;4.95;1.52;;;9.80;99.90;;;;;;5063302;28;20399;-54
2022/04/24 09:53:57;;;;;;;4.63;1.00;;;9.90;99.90;;;;;;5063367;28;20415;-54
2022/04/24 09:56:26;;;;;;;6.30;1.90;;;9.80;99.90;;;;;;5061821;28;20390;-54
2022/04/24 09:58:52;;;;;;;6.22;1.20;;;9.80;99.90;;;;;;5063674;28;20407;-53
2022/04/24 10:01:18;;;;;;;4.50;1.10;;;10.10;99.90;;;;;;5067350;28;20391;-53
2022/04/24 10:03:46;;;;;;;5.85;1.60;;;10.10;99.90;;;;;;5070713;28;20410;-54
2022/04/24 10:06:12;;;;;;;3.80;1.10;;;10.10;99.90;;;;;;5065339;28;20372;-54
2022/04/24 10:08:38;;;;;;;4.33;1.60;;;10.20;99.90;;;;;;5064556;28;20402;-54
2022/04/24 10:11:07;;;;;;;5.32;1.80;;;10.20;99.90;;;;;;5069984;28;20391;-53
2022/04/24 10:13:41;;;;;;;5.80;2.00;;;10.20;99.90;;;;;;5063648;28;20902;-54
2022/04/24 10:16:39;;;;;;;4.80;1.50;;;10.20;99.90;;;;;;5065994;28;20882;-54
2022/04/24 10:19:36;;;;;;;4.45;1.27;;;10.00;99.90;;;;;;5024965;28;20387;-54
2022/04/24 10:22:25;;;;;;;5.30;1.48;;;10.10;99.90;;;;;;5077975;28;20422;-54
2022/04/24 10:25:01;;;;;;;6.47;1.47;;;10.10;99.90;;;;;;5087724;28;20411;-54
2022/04/24 10:27:43;;;;;;;4.40;1.30;;;10.10;99.90;;;;;;5084391;28;20413;-53
2022/04/24 10:30:20;;;;;;;4.88;1.90;;;10.10;99.90;;;;;;5083335;28;20380;-54
2022/04/24 10:32:48;;;;;;;4.00;1.10;;;10.20;99.90;;;;;;5087310;28;20734;-54
2022/04/24 10:35:26;;;;;;;4.73;1.20;;;10.10;99.90;;;;;;5098548;28;20370;-54
2022/04/24 10:38:08;;;;;;;4.50;1.40;;;10.20;99.90;;;;;;5110431;28;20409;-53
2022/04/24 10:40:34;;;;;;;7.00;2.30;;;10.20;99.90;;;;;;5097138;28;20413;-53
2022/04/24 10:43:13;;;;;;;4.63;1.10;;;10.20;99.90;;;;;;5101045;28;20376;-53
2022/04/24 10:45:48;;;;;;;4.65;1.45;;;10.20;99.90;;;;;;5103143;28;20409;-54
2022/04/24 10:48:19;;;;;;;4.93;1.60;;;10.30;99.90;;;;;;5110162;28;20422;-54
2022/04/24 10:50:50;;;;;;;4.57;1.30;;;10.40;99.90;;;;;;5095466;28;20437;-54
2022/04/24 10:53:20;;;;;;;4.90;1.60;;;10.30;99.90;;;;;;5112746;28;20411;-54
2022/04/24 10:58:39;;;;;;;4.47;1.20;;;10.30;99.90;;;;;;5103406;28;20416;-53
2022/04/24 11:01:15;;;;;;;4.90;1.48;;;10.40;99.90;;;;;;5099947;28;20364;-54
2022/04/24 11:03:50;;;;;;;5.28;1.50;;;10.50;99.90;;;;;;5107322;28;21173;-54
2022/04/24 11:06:24;;;;;;;4.00;1.30;;;10.60;99.90;;;;;;5110727;28;20378;-54
2022/04/24 11:09:06;;;;;;;4.82;1.40;;;10.70;99.90;;;;;;5116475;28;20393;-54
2022/04/24 11:11:49;;;;;;;4.15;1.42;;;10.80;99.90;;;;;;5109722;28;20409;-55
2022/04/24 11:14:20;;;;;;;5.20;1.30;;;10.80;99.90;;;;;;5088325;28;20400;-54
2022/04/24 11:16:54;;;;;;;5.10;1.50;;;10.70;99.90;;;;;;5089706;28;20383;-54
2022/04/24 11:19:25;;;;;;;4.18;1.20;;;10.70;99.90;;;;;;5083521;28;20793;-55
2022/04/24 11:22:04;;;;;;;5.70;1.90;;;10.50;99.90;;;;;;5073365;28;20416;-54
2022/04/24 11:24:31;;;;;;;4.82;1.25;;;10.70;99.90;;;;;;5063135;28;20436;-54
2022/04/24 11:27:14;;;;;;;4.65;1.30;;;10.80;99.90;;;;;;5068344;28;20387;-54
2022/04/24 11:29:43;;;;;;;4.60;1.10;;;10.90;99.90;;;;;;5068310;28;20396;-54
2022/04/24 11:32:09;;;;;;;4.43;1.10;;;11.10;99.90;;;;;;5065935;28;20502;-54
2022/04/24 11:34:36;;;;;;;4.53;1.33;;;10.90;99.90;;;;;;5061398;28;20424;-53
2022/04/24 11:37:04;;;;;;;4.40;0.90;;;10.90;99.90;;;;;;5066628;28;20420;-54
2022/04/24 11:39:30;;;;;;;4.13;1.10;;;10.80;99.90;;;;;;5067002;28;20396;-54
2022/04/24 11:41:58;;;;;;;4.03;0.85;;;10.90;99.90;;;;;;5059042;28;20402;-55
2022/04/24 11:50:13;;;;;;;6.00;1.40;;;11.40;99.90;;;;;;5061402;28;20475;-53
2022/04/24 11:52:47;;;;;;;4.18;1.00;;;11.20;99.90;;;;;;5061250;28;20415;-54
2022/04/24 11:55:20;;;;;;;5.20;1.00;;;11.60;99.90;;;;;;5067307;28;20867;-54
2022/04/24 11:57:56;;;;;;;4.40;1.00;;;11.90;99.90;;;;;;5064475;28;20411;-54
2022/04/24 12:00:34;;;;;;;3.67;0.80;;;11.80;99.90;;;;;;5064417;28;20911;-54
2022/04/24 12:03:00;;;;;;;4.00;1.00;;;12.00;99.90;;;;;;5069501;28;20437;-54
2022/04/24 12:05:29;;;;;;;3.80;1.00;;;12.00;99.90;;;;;;5064486;28;20392;-54
2022/04/24 12:07:56;;;;;;;3.70;0.80;;;11.90;99.90;;;;;;5058485;28;20919;-55
2022/04/24 12:10:26;;;;;;;3.90;0.90;;;12.00;99.90;;;;;;5067396;28;20476;-54
2022/04/24 12:12:53;;;;;;;3.95;0.88;;;11.80;99.90;;;;;;5066125;28;20761;-54
2022/04/24 12:15:24;;;;;;;3.50;0.80;;;12.00;99.90;;;;;;5068006;28;20391;-54
2022/04/24 12:17:58;;;;;;;5.20;1.35;;;12.00;99.90;;;;;;5055489;28;20412;-54
2022/04/24 12:20:38;;;;;;;3.75;0.75;;;12.00;99.90;;;;;;5064481;28;20407;-54
2022/04/24 12:23:11;;;;;;;4.00;1.20;;;12.10;99.90;;;;;;5046656;28;20964;-54
2022/04/24 12:25:51;;;;;;;3.60;0.80;;;12.20;99.90;;;;;;5063412;28;20778;-54
2022/04/24 12:28:33;;;;;;;3.80;0.73;;;12.00;99.90;;;;;;5068944;28;20473;-54
2022/04/24 12:31:03;;;;;;;4.30;1.30;;;12.00;99.90;;;;;;5068276;28;21011;-54
2022/04/24 12:33:44;;;;;;;5.82;1.55;;;12.10;99.90;;;;;;5067139;28;20394;-54
2022/04/24 12:36:14;;;;;;;5.78;1.33;;;11.80;99.90;;;;;;5065503;28;20385;-52
2022/04/24 12:38:53;;;;;;;4.40;1.30;;;11.60;99.90;;;;;;5054399;28;20510;-52
2022/04/24 12:41:22;;;;;;;3.70;0.80;;;11.70;99.90;;;;;;5050695;28;20412;-51
2022/04/24 12:43:48;;;;;;;3.47;0.80;;;11.70;99.90;;;;;;5068935;28;20375;-51
2022/04/24 12:46:14;;;;;;;3.67;0.90;;;11.60;99.90;;;;;;5039625;28;20875;-51
2022/04/24 12:48:52;;;;;;;4.05;0.90;;;11.50;99.90;;;;;;5049596;28;20421;-52
2022/04/24 12:51:21;;;;;;;3.70;0.93;;;11.40;99.90;;;;;;5063831;28;20406;-50
2022/04/24 12:53:48;;;;;;;4.43;1.23;;;11.50;99.90;;;;;;5069028;28;20392;-50
2022/04/24 12:56:14;;;;;;;4.65;1.20;;;11.60;99.90;;;;;;5069078;28;20441;-50